Time;durP1;ratioP1;P1;durP2;ratioP2;P2;SDS_P1;SDS_P2;PMS_P1;PMS_P2;Temp;Humidity;BMP_temperature;BMP_pressure;BME280_temperature;BME280_humidity;BME280_pressure;Samples;Min_cycle;Max_cycle;Signal;HPM_P1;HPM_P2
2022/10/24 00:00:42;;;;;;;5.47;1.90;;;16.60;86.10;;;;;;5013485;28;20026;-68
2022/10/24 00:03:09;;;;;;;4.53;1.83;;;16.60;86.30;;;;;;5013579;28;20022;-68
2022/10/24 00:05:34;;;;;;;10.52;2.55;;;16.50;86.20;;;;;;5013894;28;20029;-68
2022/10/24 00:08:00;;;;;;;5.57;2.10;;;16.50;86.50;;;;;;5014590;28;20022;-68
2022/10/24 00:10:25;;;;;;;3.50;2.00;;;16.40;86.50;;;;;;5012792;28;20061;-66
2022/10/24 00:12:53;;;;;;;3.80;2.05;;;16.40;86.60;;;;;;5014136;28;20100;-68
2022/10/24 00:15:19;;;;;;;5.32;2.38;;;16.40;86.60;;;;;;5013868;28;20100;-68
2022/10/24 00:17:44;;;;;;;3.58;1.90;;;16.40;86.60;;;;;;5013801;28;20057;-69
2022/10/24 00:20:11;;;;;;;3.92;1.88;;;16.40;86.50;;;;;;5013195;28;20060;-68
2022/10/24 00:22:36;;;;;;;4.18;2.00;;;16.50;86.40;;;;;;5012905;28;20152;-69
2022/10/24 00:25:02;;;;;;;4.88;2.10;;;16.40;86.20;;;;;;5012889;28;20057;-67
2022/10/24 00:27:28;;;;;;;5.53;1.95;;;16.40;86.30;;;;;;5012492;28;20022;-67
2022/10/24 00:29:53;;;;;;;6.15;2.20;;;16.40;86.40;;;;;;5012779;28;20053;-69
2022/10/24 00:32:19;;;;;;;5.57;2.38;;;16.40;86.30;;;;;;5012891;28;20032;-69
2022/10/24 00:34:45;;;;;;;4.15;1.88;;;16.40;86.50;;;;;;5011944;28;20029;-68
2022/10/24 00:37:10;;;;;;;4.88;2.35;;;16.30;86.30;;;;;;5011097;28;20552;-67
2022/10/24 00:39:36;;;;;;;5.32;2.10;;;16.40;86.30;;;;;;5012030;28;20030;-69
2022/10/24 00:42:01;;;;;;;7.55;2.42;;;16.40;86.30;;;;;;5011354;28;20091;-68
2022/10/24 00:44:36;;;;;;;5.13;2.00;;;16.40;86.20;;;;;;5012271;28;20508;-69
2022/10/24 00:47:06;;;;;;;5.32;2.30;;;16.40;86.00;;;;;;5012662;28;20455;-68
2022/10/24 00:50:06;;;;;;;5.13;1.98;;;16.40;85.90;;;;;;5011770;28;20026;-68
2022/10/24 00:52:38;;;;;;;6.22;1.77;;;16.40;85.80;;;;;;5012234;28;20026;-68
2022/10/24 00:55:05;;;;;;;4.75;2.00;;;16.40;85.60;;;;;;5011901;28;20080;-68
2022/10/24 00:57:36;;;;;;;4.18;1.63;;;16.40;85.50;;;;;;5012109;28;20029;-69
2022/10/24 01:00:14;;;;;;;2.60;1.65;;;16.40;85.50;;;;;;5011825;28;20022;-69
2022/10/24 01:02:41;;;;;;;3.55;1.77;;;16.40;85.50;;;;;;5011985;28;20034;-68
2022/10/24 01:05:08;;;;;;;3.15;1.73;;;16.40;85.30;;;;;;5011689;28;20113;-68
2022/10/24 01:07:52;;;;;;;5.40;1.73;;;16.40;85.30;;;;;;5011892;28;20381;-68
2022/10/24 01:10:51;;;;;;;5.00;2.30;;;16.30;85.30;;;;;;5011564;28;20026;-68
2022/10/24 01:13:20;;;;;;;4.93;1.60;;;16.30;85.30;;;;;;5011774;28;20398;-69
2022/10/24 01:16:14;;;;;;;4.97;1.70;;;16.30;85.30;;;;;;5010126;28;20026;-68
2022/10/24 01:18:48;;;;;;;6.10;1.90;;;16.30;85.20;;;;;;5011664;28;20045;-68
2022/10/24 01:21:32;;;;;;;4.70;2.17;;;16.30;85.10;;;;;;5011570;28;20543;-69
2022/10/24 01:24:24;;;;;;;8.05;2.28;;;16.30;84.90;;;;;;5012392;28;20112;-69
2022/10/24 01:26:52;;;;;;;6.10;2.10;;;16.30;84.50;;;;;;5011790;28;20026;-69
2022/10/24 01:29:56;;;;;;;5.30;1.90;;;16.40;84.10;;;;;;5012857;28;20714;-69
2022/10/24 01:32:36;;;;;;;6.32;2.20;;;16.40;83.70;;;;;;5012891;28;20088;-69
2022/10/24 01:35:35;;;;;;;3.75;1.83;;;16.40;83.20;;;;;;5012870;28;20469;-68
2022/10/24 01:38:14;;;;;;;3.78;1.92;;;16.40;82.80;;;;;;5011444;28;20101;-69
2022/10/24 01:41:05;;;;;;;5.30;1.70;;;16.50;82.70;;;;;;5011464;28;20033;-68
2022/10/24 01:43:40;;;;;;;5.78;1.92;;;16.50;82.40;;;;;;5009659;28;20417;-67
2022/10/24 01:46:15;;;;;;;5.32;1.88;;;16.60;82.10;;;;;;5011563;28;20117;-68
2022/10/24 01:48:46;;;;;;;5.68;2.38;;;16.60;81.90;;;;;;5013081;28;20030;-69
2022/10/24 01:51:14;;;;;;;5.07;2.00;;;16.60;81.40;;;;;;5011992;28;20022;-69
2022/10/24 01:53:42;;;;;;;5.57;1.98;;;16.60;81.30;;;;;;5011381;28;20495;-69
2022/10/24 01:56:08;;;;;;;4.53;1.92;;;16.70;81.30;;;;;;5011427;28;20026;-68
2022/10/24 01:58:34;;;;;;;5.30;2.25;;;16.70;80.80;;;;;;5011202;28;20079;-68
2022/10/24 02:01:04;;;;;;;5.28;1.98;;;16.70;81.20;;;;;;5011074;28;20480;-68
2022/10/24 02:03:39;;;;;;;6.97;2.30;;;16.70;80.40;;;;;;5010765;28;20029;-68
2022/10/24 02:06:08;;;;;;;5.05;2.00;;;16.70;80.30;;;;;;5009271;28;20021;-69
2022/10/24 02:08:41;;;;;;;5.78;2.08;;;16.70;80.20;;;;;;5010352;28;20038;-68
2022/10/24 02:11:08;;;;;;;2.95;1.70;;;16.70;80.00;;;;;;5008889;28;20049;-67
2022/10/24 02:13:56;;;;;;;5.90;2.53;;;16.70;79.90;;;;;;5010516;28;20046;-67
2022/10/24 02:16:22;;;;;;;9.93;2.47;;;16.70;79.50;;;;;;5009093;28;20036;-67
2022/10/24 02:18:51;;;;;;;4.43;2.10;;;16.80;79.10;;;;;;5010329;28;20022;-68
2022/10/24 02:21:43;;;;;;;7.80;2.60;;;16.80;78.70;;;;;;5010706;28;20037;-67
2022/10/24 02:24:23;;;;;;;6.22;2.22;;;16.80;78.40;;;;;;5012427;28;20014;-68
2022/10/24 02:26:52;;;;;;;3.95;1.90;;;16.80;78.10;;;;;;5010419;28;20445;-68
2022/10/24 02:29:26;;;;;;;3.15;1.70;;;16.80;78.20;;;;;;5010470;28;20080;-67
2022/10/24 02:31:55;;;;;;;3.53;1.85;;;16.70;78.30;;;;;;5009453;28;20022;-66
2022/10/24 02:34:22;;;;;;;4.20;2.15;;;16.80;78.50;;;;;;5010741;28;20028;-69
2022/10/24 02:36:52;;;;;;;6.85;2.30;;;16.70;78.40;;;;;;5010725;28;20496;-68
2022/10/24 02:39:19;;;;;;;5.13;2.20;;;16.70;78.10;;;;;;5010699;28;20072;-69
2022/10/24 02:41:45;;;;;;;4.97;2.17;;;16.70;77.80;;;;;;5009262;28;20053;-68
2022/10/24 02:44:14;;;;;;;4.03;1.95;;;16.70;77.40;;;;;;5010668;28;20054;-69
2022/10/24 02:46:40;;;;;;;4.85;1.98;;;16.70;77.20;;;;;;5010580;28;20125;-69
2022/10/24 02:49:06;;;;;;;3.90;1.77;;;16.70;77.10;;;;;;5010780;28;20595;-70
2022/10/24 02:51:35;;;;;;;2.20;1.60;;;16.70;77.80;;;;;;5011346;28;20096;-69
2022/10/24 02:54:02;;;;;;;3.53;1.50;;;16.70;77.00;;;;;;5009519;28;20018;-68
2022/10/24 02:56:29;;;;;;;5.22;1.83;;;16.70;77.10;;;;;;5009132;28;20018;-67
2022/10/24 02:58:54;;;;;;;6.97;1.92;;;16.70;76.80;;;;;;5010418;28;20030;-69
2022/10/24 03:01:20;;;;;;;5.35;1.73;;;16.80;76.50;;;;;;5010503;28;20137;-69
2022/10/24 03:03:46;;;;;;;5.78;2.30;;;16.70;76.40;;;;;;5013160;28;20057;-69
2022/10/24 03:06:12;;;;;;;4.07;1.73;;;16.70;76.30;;;;;;5013017;28;20022;-69
2022/10/24 03:08:37;;;;;;;5.10;1.90;;;16.80;76.10;;;;;;5012611;28;20084;-68
2022/10/24 03:11:03;;;;;;;4.35;1.90;;;16.70;75.80;;;;;;5012801;28;20063;-68
2022/10/24 03:13:29;;;;;;;3.15;1.50;;;16.80;75.70;;;;;;5014344;28;20029;-70
2022/10/24 03:15:54;;;;;;;4.15;1.77;;;16.70;75.60;;;;;;5014718;28;20104;-69
2022/10/24 03:18:20;;;;;;;4.43;1.70;;;16.80;75.50;;;;;;5012908;28;20033;-69
2022/10/24 03:20:45;;;;;;;4.65;1.90;;;16.80;75.50;;;;;;5015476;28;20028;-69
2022/10/24 03:23:11;;;;;;;5.28;1.98;;;16.80;75.00;;;;;;5014914;28;20034;-69
2022/10/24 03:25:36;;;;;;;5.25;1.70;;;16.80;74.60;;;;;;5014070;28;20050;-69
2022/10/24 03:28:02;;;;;;;3.95;1.60;;;16.80;74.60;;;;;;5013592;28;20036;-68
2022/10/24 03:30:28;;;;;;;3.70;1.60;;;16.80;74.70;;;;;;5012282;28;20061;-69
2022/10/24 03:32:53;;;;;;;4.93;1.73;;;16.80;74.30;;;;;;5013839;28;20033;-69
2022/10/24 03:35:19;;;;;;;2.65;1.60;;;16.80;74.40;;;;;;5012421;28;20502;-69
2022/10/24 03:37:45;;;;;;;4.65;1.60;;;16.80;74.10;;;;;;5013751;28;20026;-69
2022/10/24 03:40:11;;;;;;;4.38;1.50;;;16.70;74.10;;;;;;5013515;28;20105;-69
2022/10/24 03:42:37;;;;;;;2.63;1.50;;;16.70;74.10;;;;;;5012226;28;20026;-70
2022/10/24 03:45:03;;;;;;;2.97;1.40;;;16.80;74.10;;;;;;5013502;28;20018;-69
2022/10/24 03:47:28;;;;;;;3.17;1.20;;;16.80;73.90;;;;;;5014605;28;20041;-69
2022/10/24 03:49:54;;;;;;;4.70;1.70;;;16.80;74.10;;;;;;5013353;28;20488;-69
2022/10/24 03:52:19;;;;;;;4.28;1.70;;;16.80;73.30;;;;;;5013777;28;20689;-69
2022/10/24 03:54:45;;;;;;;5.93;1.60;;;16.80;73.20;;;;;;5015005;28;20037;-68
2022/10/24 03:57:11;;;;;;;2.58;1.17;;;16.80;73.00;;;;;;5015128;28;20080;-68
2022/10/24 03:59:37;;;;;;;6.60;2.20;;;16.80;73.20;;;;;;5013556;28;20021;-68
2022/10/24 04:02:03;;;;;;;4.28;1.60;;;16.80;72.80;;;;;;5014954;28;20547;-68
2022/10/24 04:04:29;;;;;;;3.45;1.55;;;16.80;73.10;;;;;;5014983;28;20030;-68
2022/10/24 04:06:54;;;;;;;3.35;1.40;;;16.70;73.00;;;;;;5013210;28;20025;-69
2022/10/24 04:09:20;;;;;;;7.22;1.80;;;16.70;73.10;;;;;;5012728;28;20496;-69
2022/10/24 04:11:47;;;;;;;2.90;1.50;;;16.70;72.80;;;;;;5012522;28;20145;-69
2022/10/24 04:14:13;;;;;;;4.07;1.65;;;16.70;72.80;;;;;;5011745;28;20025;-68
2022/10/24 04:16:39;;;;;;;3.83;1.50;;;16.70;72.60;;;;;;5011095;28;20120;-69
2022/10/24 04:19:04;;;;;;;3.20;1.70;;;16.70;72.60;;;;;;5011405;28;20077;-68
2022/10/24 04:21:30;;;;;;;6.18;1.40;;;16.70;72.60;;;;;;5012861;28;20050;-69
2022/10/24 04:23:56;;;;;;;2.88;1.20;;;16.70;72.80;;;;;;5012587;28;20030;-68
2022/10/24 04:26:22;;;;;;;5.70;1.30;;;16.70;72.80;;;;;;5012584;28;20088;-68
2022/10/24 04:28:48;;;;;;;4.00;1.50;;;16.70;72.90;;;;;;5012211;28;20109;-68
2022/10/24 04:31:14;;;;;;;2.20;1.20;;;16.70;72.90;;;;;;5012568;28;20041;-67
2022/10/24 04:33:39;;;;;;;4.22;1.40;;;16.70;72.90;;;;;;5012483;28;20393;-68
2022/10/24 04:36:05;;;;;;;5.35;1.50;;;16.70;73.00;;;;;;5012720;28;20032;-68
2022/10/24 04:38:31;;;;;;;4.05;1.35;;;16.70;73.20;;;;;;5012170;28;20096;-69
2022/10/24 04:40:56;;;;;;;2.25;1.05;;;16.70;73.20;;;;;;5012249;28;20036;-68
2022/10/24 04:43:22;;;;;;;4.57;1.42;;;16.60;73.40;;;;;;5011824;28;20411;-68
2022/10/24 04:45:48;;;;;;;2.50;1.30;;;16.60;73.40;;;;;;5012741;28;20480;-67
2022/10/24 04:48:15;;;;;;;3.35;1.25;;;16.60;73.60;;;;;;5011765;28;20547;-70
2022/10/24 04:50:41;;;;;;;3.17;1.17;;;16.50;73.70;;;;;;5012621;28;20113;-68
2022/10/24 04:53:07;;;;;;;1.88;1.35;;;16.50;73.80;;;;;;5014500;28;20030;-69
2022/10/24 04:55:33;;;;;;;5.35;1.63;;;16.50;73.70;;;;;;5011891;28;20037;-68
2022/10/24 04:57:59;;;;;;;5.53;1.60;;;16.50;73.70;;;;;;5012173;28;20018;-69
2022/10/24 05:00:24;;;;;;;4.55;1.65;;;16.50;73.60;;;;;;5011687;28;20112;-67
2022/10/24 05:02:50;;;;;;;4.72;1.23;;;16.50;73.60;;;;;;4993774;28;20030;-70
2022/10/24 05:05:16;;;;;;;4.70;1.60;;;16.50;73.70;;;;;;4992428;28;20030;-67
2022/10/24 05:07:43;;;;;;;5.10;1.52;;;16.50;73.50;;;;;;4992658;28;20397;-69
2022/10/24 05:10:09;;;;;;;5.28;1.60;;;16.50;73.60;;;;;;5002868;28;20083;-65
2022/10/24 05:12:35;;;;;;;2.80;1.48;;;16.50;73.60;;;;;;5008750;28;20023;-67
2022/10/24 05:15:05;;;;;;;4.07;1.70;;;16.50;73.60;;;;;;5001660;28;20041;-68
2022/10/24 05:17:30;;;;;;;2.92;1.30;;;16.50;73.60;;;;;;5000691;28;20225;-69
2022/10/24 05:19:56;;;;;;;5.18;1.80;;;16.50;73.80;;;;;;5000942;28;20108;-69
2022/10/24 05:22:22;;;;;;;3.28;1.50;;;16.50;73.70;;;;;;5001559;28;20027;-68
2022/10/24 05:24:48;;;;;;;4.35;1.40;;;16.50;73.80;;;;;;5000564;28;20575;-69
2022/10/24 05:27:14;;;;;;;6.88;1.70;;;16.50;73.70;;;;;;5000619;28;20100;-69
2022/10/24 05:29:40;;;;;;;6.18;1.70;;;16.50;73.60;;;;;;4999159;28;20018;-69
2022/10/24 05:32:05;;;;;;;3.45;1.30;;;16.60;73.70;;;;;;5001541;28;20017;-68
2022/10/24 05:34:31;;;;;;;4.70;1.50;;;16.50;73.60;;;;;;4999039;28;20026;-69
2022/10/24 05:36:56;;;;;;;5.43;1.60;;;16.50;73.70;;;;;;5000377;28;20105;-69
2022/10/24 05:39:22;;;;;;;2.95;1.20;;;16.60;73.40;;;;;;4999591;28;20100;-68
2022/10/24 05:41:47;;;;;;;7.30;1.67;;;16.60;73.50;;;;;;5002448;28;20022;-67
2022/10/24 05:44:13;;;;;;;4.57;1.30;;;16.60;73.50;;;;;;5000231;28;20018;-68
2022/10/24 05:46:39;;;;;;;2.15;1.10;;;16.60;73.40;;;;;;5000562;28;20511;-68
2022/10/24 05:49:05;;;;;;;3.78;1.23;;;16.60;73.60;;;;;;5002025;28;20021;-67
2022/10/24 05:51:31;;;;;;;3.60;1.38;;;16.50;73.60;;;;;;4998511;28;20089;-68
2022/10/24 05:53:57;;;;;;;5.07;1.58;;;16.60;73.60;;;;;;5000931;28;20021;-69
2022/10/24 05:56:23;;;;;;;3.83;1.40;;;16.60;73.40;;;;;;5002022;28;20030;-69
2022/10/24 05:58:49;;;;;;;3.35;1.33;;;16.60;73.50;;;;;;4999215;28;20044;-67
2022/10/24 06:01:15;;;;;;;7.03;1.70;;;16.60;73.40;;;;;;5000879;28;20037;-68
2022/10/24 06:03:41;;;;;;;6.20;1.63;;;16.60;73.30;;;;;;5001205;28;20019;-68
2022/10/24 06:06:10;;;;;;;4.05;1.33;;;16.60;73.20;;;;;;4998478;28;20029;-68
2022/10/24 06:08:37;;;;;;;9.05;1.80;;;16.60;73.20;;;;;;5000010;28;20029;-68
2022/10/24 06:11:03;;;;;;;4.15;1.30;;;16.60;73.20;;;;;;5000696;28;20072;-68
2022/10/24 06:13:29;;;;;;;4.97;1.65;;;16.60;73.20;;;;;;4999211;28;20511;-67
2022/10/24 06:15:55;;;;;;;5.28;1.33;;;16.60;73.30;;;;;;5000073;28;20018;-67
2022/10/24 06:18:20;;;;;;;3.53;1.40;;;16.50;73.40;;;;;;5000500;28;20104;-68
2022/10/24 06:20:46;;;;;;;4.95;1.75;;;16.50;73.60;;;;;;4998353;28;20022;-67
2022/10/24 06:23:11;;;;;;;4.63;1.50;;;16.50;73.70;;;;;;4998832;28;20378;-68
2022/10/24 06:25:40;;;;;;;2.97;1.40;;;16.50;73.80;;;;;;5000839;28;20466;-67
2022/10/24 06:28:06;;;;;;;3.90;1.45;;;16.50;73.80;;;;;;4999536;28;20022;-68
2022/10/24 06:30:32;;;;;;;6.05;1.67;;;16.50;74.00;;;;;;5001076;28;20029;-68
2022/10/24 06:32:58;;;;;;;7.38;1.85;;;16.50;73.90;;;;;;4998381;28;20026;-68
2022/10/24 06:35:23;;;;;;;6.43;1.60;;;16.50;74.10;;;;;;5008996;28;20105;-67
2022/10/24 06:37:49;;;;;;;8.60;1.80;;;16.50;74.10;;;;;;5012981;28;20097;-68
2022/10/24 06:40:16;;;;;;;4.78;1.42;;;16.50;74.30;;;;;;5006582;28;20077;-68
2022/10/24 06:42:41;;;;;;;5.95;1.80;;;16.50;74.30;;;;;;4995903;28;20520;-68
2022/10/24 06:45:07;;;;;;;11.07;1.85;;;16.50;74.30;;;;;;5013910;28;20033;-67
2022/10/24 06:47:33;;;;;;;3.47;1.30;;;16.50;74.30;;;;;;5002047;28;20056;-67
2022/10/24 06:49:58;;;;;;;6.95;1.90;;;16.50;74.40;;;;;;5008434;28;20026;-70
2022/10/24 06:52:24;;;;;;;3.58;1.15;;;16.50;74.40;;;;;;5009216;28;20431;-69
2022/10/24 06:54:49;;;;;;;4.70;1.60;;;16.50;74.40;;;;;;5001645;28;20366;-69
2022/10/24 06:57:16;;;;;;;5.70;1.50;;;16.50;74.40;;;;;;5013453;28;20502;-69
2022/10/24 06:59:42;;;;;;;5.82;1.50;;;16.50;74.40;;;;;;5002418;28;20548;-68
2022/10/24 07:02:12;;;;;;;4.20;1.30;;;16.50;74.40;;;;;;5016782;28;20105;-67
2022/10/24 07:04:37;;;;;;;8.10;1.85;;;16.60;74.50;;;;;;5002965;28;20026;-68
2022/10/24 07:07:03;;;;;;;5.18;1.45;;;16.60;74.30;;;;;;5013521;28;20459;-69
2022/10/24 07:09:29;;;;;;;6.35;1.88;;;16.70;74.20;;;;;;5001414;28;20034;-68
2022/10/24 07:11:55;;;;;;;4.30;1.50;;;16.70;74.10;;;;;;5008886;28;20018;-68
2022/10/24 07:14:20;;;;;;;4.40;1.40;;;16.80;74.10;;;;;;5008453;28;20026;-67
2022/10/24 07:16:46;;;;;;;4.75;1.35;;;16.80;73.90;;;;;;5001614;28;20065;-68
2022/10/24 07:19:11;;;;;;;5.90;1.50;;;16.90;73.90;;;;;;5010387;28;20111;-68
2022/10/24 07:21:37;;;;;;;6.47;1.85;;;16.90;73.80;;;;;;5011554;28;20050;-68
2022/10/24 07:24:03;;;;;;;4.97;1.35;;;16.90;73.60;;;;;;5012033;28;20025;-68
2022/10/24 07:26:29;;;;;;;9.27;1.73;;;17.00;73.50;;;;;;5008557;28;20484;-67
2022/10/24 07:28:59;;;;;;;6.97;1.60;;;17.00;73.30;;;;;;5005734;28;20065;-67
2022/10/24 07:31:28;;;;;;;6.35;1.65;;;17.00;73.30;;;;;;5005383;28;20061;-69
2022/10/24 07:33:53;;;;;;;7.75;1.77;;;17.10;73.20;;;;;;5005583;28;20022;-67
2022/10/24 07:36:22;;;;;;;8.65;1.60;;;17.10;73.20;;;;;;5006957;28;20410;-69
2022/10/24 07:38:49;;;;;;;5.53;1.67;;;17.10;73.20;;;;;;5005929;28;20044;-69
2022/10/24 07:41:16;;;;;;;7.30;1.92;;;17.10;73.20;;;;;;5005520;28;20664;-68
2022/10/24 07:43:42;;;;;;;9.25;1.90;;;17.10;73.30;;;;;;5007303;28;20033;-68
2022/10/24 07:46:10;;;;;;;5.60;1.80;;;17.10;73.40;;;;;;5006449;28;20022;-68
2022/10/24 07:48:37;;;;;;;6.93;1.70;;;17.10;73.50;;;;;;4998862;28;20393;-67
2022/10/24 07:51:11;;;;;;;7.40;1.83;;;17.20;73.40;;;;;;5010161;28;20072;-69
2022/10/24 07:53:37;;;;;;;6.13;1.58;;;17.20;73.40;;;;;;5012968;28;20025;-68
2022/10/24 07:56:07;;;;;;;3.58;1.23;;;17.30;73.40;;;;;;5013320;28;20110;-68
2022/10/24 07:58:34;;;;;;;6.20;1.70;;;17.40;73.20;;;;;;5012364;28;20026;-68
2022/10/24 08:01:11;;;;;;;4.68;1.58;;;17.50;72.90;;;;;;5013013;28;20030;-68
2022/10/24 08:03:37;;;;;;;4.20;1.40;;;17.50;72.80;;;;;;5013137;28;20079;-69
2022/10/24 08:06:08;;;;;;;6.20;1.52;;;17.50;72.70;;;;;;5012922;28;20030;-67
2022/10/24 08:08:34;;;;;;;5.25;1.50;;;17.40;72.60;;;;;;5013011;28;20121;-69
2022/10/24 08:11:00;;;;;;;6.68;1.83;;;17.40;72.70;;;;;;5012798;28;20033;-69
2022/10/24 08:13:26;;;;;;;6.00;1.50;;;17.40;72.70;;;;;;5011570;28;20022;-68
2022/10/24 08:15:51;;;;;;;6.32;1.80;;;17.30;72.70;;;;;;5012763;28;20018;-68
2022/10/24 08:18:17;;;;;;;6.63;1.50;;;17.40;72.80;;;;;;5011551;28;20029;-67
2022/10/24 08:20:43;;;;;;;4.70;1.30;;;17.40;73.00;;;;;;5011407;28;20125;-68
2022/10/24 08:23:08;;;;;;;6.07;1.60;;;17.50;73.00;;;;;;5012778;28;20049;-69
2022/10/24 08:25:34;;;;;;;7.70;2.00;;;17.60;73.40;;;;;;5012629;28;20022;-68
2022/10/24 08:28:00;;;;;;;7.80;2.05;;;17.60;72.60;;;;;;5012676;28;20080;-69
2022/10/24 08:30:25;;;;;;;6.05;2.05;;;17.60;72.00;;;;;;5012564;28;20087;-68
2022/10/24 08:32:51;;;;;;;6.18;1.45;;;17.60;71.90;;;;;;5012649;28;20026;-68
2022/10/24 08:35:18;;;;;;;7.07;1.55;;;17.60;71.60;;;;;;5011376;28;20041;-69
2022/10/24 08:37:44;;;;;;;3.40;1.30;;;17.60;71.20;;;;;;5012385;28;20072;-68
2022/10/24 08:40:18;;;;;;;3.72;1.20;;;17.60;70.80;;;;;;5012534;28;20026;-69
2022/10/24 08:42:44;;;;;;;5.15;1.40;;;17.70;70.60;;;;;;5012379;28;20145;-68
2022/10/24 08:45:37;;;;;;;5.07;1.27;;;17.70;70.70;;;;;;5012358;28;20080;-69
2022/10/24 08:48:13;;;;;;;3.10;1.00;;;17.70;70.90;;;;;;5012005;28;20030;-67
2022/10/24 08:50:45;;;;;;;5.88;1.73;;;17.90;71.20;;;;;;5012267;28;20111;-68
2022/10/24 08:53:44;;;;;;;5.88;1.40;;;17.90;71.20;;;;;;5012122;28;20025;-67
2022/10/24 08:56:11;;;;;;;5.47;1.35;;;17.90;71.30;;;;;;5021576;28;20112;-67
2022/10/24 08:58:43;;;;;;;7.43;1.55;;;17.90;71.40;;;;;;5011969;28;20551;-67
2022/10/24 09:01:30;;;;;;;5.65;1.80;;;18.00;71.90;;;;;;5011494;28;20029;-67
2022/10/24 09:04:02;;;;;;;5.63;1.52;;;18.00;70.70;;;;;;5010727;28;20026;-67
2022/10/24 09:06:30;;;;;;;2.92;1.10;;;18.10;70.20;;;;;;5012060;28;20395;-67
2022/10/24 09:09:17;;;;;;;3.60;1.10;;;18.10;70.20;;;;;;5011804;28;20054;-67
2022/10/24 09:11:53;;;;;;;6.75;1.50;;;18.20;70.10;;;;;;5010502;28;20030;-68
2022/10/24 09:14:26;;;;;;;2.53;0.90;;;18.30;69.70;;;;;;5011654;28;20056;-68
2022/10/24 09:16:57;;;;;;;4.15;1.35;;;18.30;69.70;;;;;;5011584;28;20026;-67
2022/10/24 09:19:26;;;;;;;5.38;1.20;;;18.40;69.60;;;;;;5011680;28;20101;-68
2022/10/24 09:21:54;;;;;;;4.22;1.50;;;18.30;69.30;;;;;;5011802;28;20436;-67
2022/10/24 09:24:27;;;;;;;5.22;1.25;;;18.30;69.20;;;;;;5009946;28;20044;-68
2022/10/24 09:26:53;;;;;;;3.88;1.23;;;18.20;69.30;;;;;;5011534;28;20052;-68
2022/10/24 09:29:18;;;;;;;4.60;1.33;;;18.30;69.30;;;;;;5010799;28;20484;-66
2022/10/24 09:31:48;;;;;;;4.78;1.30;;;18.20;69.20;;;;;;5011535;28;20025;-68
2022/10/24 09:34:14;;;;;;;3.95;1.10;;;18.20;69.40;;;;;;5011156;28;20101;-68
2022/10/24 09:36:41;;;;;;;6.10;1.23;;;18.30;69.40;;;;;;5011488;28;20393;-68
2022/10/24 09:39:23;;;;;;;5.50;1.40;;;18.30;69.30;;;;;;5010061;28;20029;-68
2022/10/24 09:41:48;;;;;;;;;;;18.40;69.20;;;;;;5011818;28;20168;-67
2022/10/24 09:44:32;;;;;;;4.72;1.20;;;18.50;68.90;;;;;;5011476;28;20395;-67
2022/10/24 09:46:59;;;;;;;4.97;1.20;;;18.50;68.70;;;;;;5011654;28;20083;-68
2022/10/24 09:49:35;;;;;;;3.08;1.20;;;18.50;68.20;;;;;;5009962;28;20044;-68
2022/10/24 09:52:06;;;;;;;5.07;1.65;;;18.50;68.20;;;;;;5011258;28;20026;-67
2022/10/24 09:54:34;;;;;;;4.03;1.20;;;18.60;67.90;;;;;;5011595;28;20097;-67
2022/10/24 09:57:16;;;;;;;4.40;1.27;;;18.70;68.10;;;;;;5011287;28;20384;-67
2022/10/24 09:59:47;;;;;;;4.60;1.50;;;18.70;67.90;;;;;;5011143;28;20058;-65
2022/10/24 10:02:18;;;;;;;3.38;1.10;;;18.70;67.80;;;;;;5009973;28;20057;-68
2022/10/24 10:04:46;;;;;;;3.33;1.20;;;18.60;67.60;;;;;;5011428;28;20053;-68
2022/10/24 10:07:18;;;;;;;4.68;1.20;;;18.50;67.60;;;;;;5010788;28;20033;-68
2022/10/24 10:10:00;;;;;;;2.95;0.90;;;18.50;68.00;;;;;;5010887;28;20030;-68
2022/10/24 10:12:31;;;;;;;5.00;1.25;;;18.50;68.00;;;;;;5008289;28;20026;-67
2022/10/24 10:14:58;;;;;;;;;;;18.50;67.90;;;;;;5011280;28;20018;-67
2022/10/24 10:17:31;;;;;;;4.03;0.90;;;18.50;68.00;;;;;;5010205;28;19920;-68
2022/10/24 10:19:58;;;;;;;3.85;1.10;;;18.60;68.20;;;;;;5010849;28;20116;-67
2022/10/24 10:22:31;;;;;;;5.53;1.35;;;18.60;67.90;;;;;;5010490;28;20050;-68
2022/10/24 10:24:58;;;;;;;4.43;1.23;;;18.60;67.80;;;;;;5010731;28;20025;-67
2022/10/24 10:27:36;;;;;;;7.18;1.20;;;18.60;67.60;;;;;;5010593;28;20026;-68
2022/10/24 10:30:10;;;;;;;5.03;1.52;;;18.60;67.60;;;;;;5010798;28;20037;-67
2022/10/24 10:32:52;;;;;;;5.75;1.00;;;18.60;66.80;;;;;;5010703;28;20026;-67
2022/10/24 10:35:33;;;;;;;2.80;1.10;;;18.50;67.00;;;;;;5010648;28;20022;-68
2022/10/24 10:38:23;;;;;;;2.35;1.10;;;18.50;67.10;;;;;;5010418;28;20029;-67
2022/10/24 10:40:58;;;;;;;4.63;1.20;;;18.50;67.10;;;;;;5010563;28;20037;-67
2022/10/24 10:43:42;;;;;;;3.53;0.93;;;18.50;67.10;;;;;;5010287;28;20022;-67
2022/10/24 10:46:23;;;;;;;3.83;1.08;;;18.60;67.20;;;;;;5010512;28;20038;-66
2022/10/24 10:49:07;;;;;;;2.42;0.90;;;18.70;67.10;;;;;;5010225;28;20397;-67
2022/10/24 10:52:06;;;;;;;3.67;1.15;;;18.70;67.00;;;;;;5010488;28;20044;-67
2022/10/24 10:54:52;;;;;;;4.28;1.27;;;18.70;67.00;;;;;;5010307;28;20037;-68
2022/10/24 10:57:33;;;;;;;3.65;1.05;;;18.70;66.80;;;;;;5010396;28;20034;-67
2022/10/24 11:00:14;;;;;;;3.42;1.08;;;18.60;67.20;;;;;;5010075;28;20014;-67
2022/10/24 11:02:57;;;;;;;4.65;1.05;;;18.60;66.80;;;;;;5010407;28;20018;-68
2022/10/24 11:05:35;;;;;;;2.03;0.95;;;18.60;66.70;;;;;;5010247;28;20377;-68
2022/10/24 11:08:19;;;;;;;3.33;0.88;;;18.60;66.60;;;;;;5010304;28;20045;-68
2022/10/24 11:11:04;;;;;;;4.75;1.10;;;18.70;66.80;;;;;;5008736;28;20052;-68
2022/10/24 11:14:10;;;;;;;4.53;1.23;;;18.80;66.40;;;;;;5010269;28;20065;-68
2022/10/24 11:16:37;;;;;;;3.13;0.80;;;18.80;66.30;;;;;;5009781;28;20554;-68
2022/10/24 11:19:19;;;;;;;3.53;0.98;;;18.80;66.20;;;;;;5010162;28;20101;-68
2022/10/24 11:21:45;;;;;;;2.47;0.90;;;19.00;66.30;;;;;;5010064;28;20026;-67
2022/10/24 11:24:16;;;;;;;4.90;1.25;;;19.00;66.10;;;;;;5012159;28;20033;-68
2022/10/24 11:26:51;;;;;;;4.33;1.20;;;19.10;65.80;;;;;;5013720;28;20501;-67
2022/10/24 11:29:30;;;;;;;4.40;1.30;;;19.10;65.60;;;;;;5013506;28;20026;-68
2022/10/24 11:31:56;;;;;;;3.85;0.90;;;19.10;65.50;;;;;;5013656;28;20022;-68
2022/10/24 11:34:41;;;;;;;2.35;0.85;;;19.10;65.30;;;;;;5013761;28;20026;-67
2022/10/24 11:37:16;;;;;;;4.20;1.27;;;19.20;65.50;;;;;;5013478;28;20033;-67
2022/10/24 11:39:45;;;;;;;3.35;1.08;;;19.20;65.00;;;;;;5012276;28;20081;-68
2022/10/24 11:42:47;;;;;;;3.75;1.17;;;19.20;65.20;;;;;;5013301;28;20026;-67
2022/10/24 11:45:16;;;;;;;3.33;1.20;;;19.20;65.00;;;;;;5013748;28;20063;-67
2022/10/24 11:47:58;;;;;;;4.70;1.38;;;19.20;65.00;;;;;;5013204;28;20026;-67
2022/10/24 11:50:29;;;;;;;;;;;19.20;64.80;;;;;;5013823;28;20029;-68
2022/10/24 11:53:16;;;;;;;3.10;0.93;;;19.20;65.00;;;;;;5013530;28;19982;-67
2022/10/24 11:55:49;;;;;;;4.25;1.20;;;19.10;64.90;;;;;;5013409;28;20283;-68
2022/10/24 11:58:18;;;;;;;3.63;1.00;;;19.00;64.80;;;;;;5013011;28;20097;-69
2022/10/24 12:00:50;;;;;;;3.05;1.00;;;18.90;64.90;;;;;;5011940;28;20026;-68
2022/10/24 12:03:50;;;;;;;4.40;0.98;;;18.80;65.00;;;;;;5013101;28;20030;-67
2022/10/24 12:06:37;;;;;;;4.45;1.08;;;18.70;65.30;;;;;;5013097;28;20037;-67
2022/10/24 12:09:23;;;;;;;1.45;0.65;;;18.70;65.60;;;;;;5012973;28;20029;-69
2022/10/24 12:12:08;;;;;;;2.95;1.10;;;18.80;65.80;;;;;;5011696;28;20029;-69
2022/10/24 12:14:45;;;;;;;3.05;1.25;;;18.80;66.10;;;;;;5012914;28;20025;-67
2022/10/24 12:17:33;;;;;;;1.63;0.80;;;18.90;66.20;;;;;;5011530;28;20026;-69
2022/10/24 12:20:00;;;;;;;3.50;1.20;;;19.00;66.30;;;;;;5012816;28;20030;-68
2022/10/24 12:22:36;;;;;;;3.28;0.90;;;19.10;66.20;;;;;;5013031;28;20075;-68
2022/10/24 12:25:22;;;;;;;2.95;0.90;;;19.00;65.60;;;;;;5012937;28;20037;-68
2022/10/24 12:27:54;;;;;;;2.80;1.02;;;19.00;65.60;;;;;;5011895;28;20026;-68
2022/10/24 12:30:20;;;;;;;;;;;18.90;65.40;;;;;;5013533;28;20068;-69
2022/10/24 12:32:50;;;;;;;3.83;0.88;;;19.00;65.60;;;;;;5013465;28;19975;-68
2022/10/24 12:35:45;;;;;;;1.98;0.85;;;19.00;65.70;;;;;;5012104;28;20508;-69
2022/10/24 12:38:30;;;;;;;3.08;1.00;;;19.10;65.60;;;;;;5013014;28;20101;-66
2022/10/24 12:41:08;;;;;;;3.38;1.10;;;19.10;65.10;;;;;;5012711;28;20484;-69
2022/10/24 12:43:46;;;;;;;4.07;1.25;;;19.00;65.10;;;;;;5011691;28;20080;-69
2022/10/24 12:46:15;;;;;;;3.05;1.10;;;19.10;65.40;;;;;;5010715;28;20053;-69
2022/10/24 12:48:59;;;;;;;1.55;0.90;;;19.00;65.40;;;;;;5012326;28;20061;-68
2022/10/24 12:51:29;;;;;;;5.25;1.52;;;19.00;65.50;;;;;;5012133;28;20030;-68
2022/10/24 12:54:14;;;;;;;4.40;1.08;;;18.90;65.50;;;;;;5012427;28;20069;-69
2022/10/24 12:56:49;;;;;;;3.25;1.10;;;18.90;66.00;;;;;;5012064;28;20021;-68
2022/10/24 12:59:49;;;;;;;4.32;1.10;;;18.80;66.60;;;;;;5012254;28;20026;-69
2022/10/24 13:02:15;;;;;;;4.22;1.20;;;18.70;67.00;;;;;;5012020;28;20026;-69
2022/10/24 13:04:46;;;;;;;5.75;1.15;;;18.70;67.20;;;;;;5012148;28;20037;-69
2022/10/24 13:07:40;;;;;;;3.10;1.10;;;18.60;67.60;;;;;;5011893;28;20096;-68